sensor_id;sensor_type;location;lat;lon;timestamp;temperature;humidity
13572;DHT22;6857;53.484;10.216;2023-12-20T00:01:00;6.50;99.90
13572;DHT22;6857;53.484;10.216;2023-12-20T00:03:26;6.50;99.90
13572;DHT22;6857;53.484;10.216;2023-12-20T00:05:51;6.50;99.90
13572;DHT22;6857;53.484;10.216;2023-12-20T00:08:17;6.40;99.90
13572;DHT22;6857;53.484;10.216;2023-12-20T00:10:46;6.50;99.90
13572;DHT22;6857;53.484;10.216;2023-12-20T00:13:11;6.50;99.90
13572;DHT22;6857;53.484;10.216;2023-12-20T00:15:37;6.40;99.90
13572;DHT22;6857;53.484;10.216;2023-12-20T00:18:02;6.30;99.90
13572;DHT22;6857;53.484;10.216;2023-12-20T00:20:28;6.30;99.90
13572;DHT22;6857;53.484;10.216;2023-12-20T00:22:57;6.20;99.90
13572;DHT22;6857;53.484;10.216;2023-12-20T00:25:23;6.30;99.90
13572;DHT22;6857;53.484;10.216;2023-12-20T00:27:49;6.20;99.90
13572;DHT22;6857;53.484;10.216;2023-12-20T00:30:14;6.10;99.90
13572;DHT22;6857;53.484;10.216;2023-12-20T00:32:40;6.10;99.90
13572;DHT22;6857;53.484;10.216;2023-12-20T00:35:12;6.10;99.90
13572;DHT22;6857;53.484;10.216;2023-12-20T00:37:37;6.10;99.90
13572;DHT22;6857;53.484;10.216;2023-12-20T00:40:03;6.00;99.90
13572;DHT22;6857;53.484;10.216;2023-12-20T00:42:29;6.00;99.90
13572;DHT22;6857;53.484;10.216;2023-12-20T00:44:54;6.00;99.90
13572;DHT22;6857;53.484;10.216;2023-12-20T00:47:20;5.90;99.90
13572;DHT22;6857;53.484;10.216;2023-12-20T00:49:45;6.00;99.90
13572;DHT22;6857;53.484;10.216;2023-12-20T00:52:11;6.00;99.90
13572;DHT22;6857;53.484;10.216;2023-12-20T00:54:36;6.00;99.90
13572;DHT22;6857;53.484;10.216;2023-12-20T00:57:02;6.00;99.90
13572;DHT22;6857;53.484;10.216;2023-12-20T00:59:28;6.10;99.90
13572;DHT22;6857;53.484;10.216;2023-12-20T01:01:53;6.10;99.90
13572;DHT22;6857;53.484;10.216;2023-12-20T01:04:19;6.10;99.90
13572;DHT22;6857;53.484;10.216;2023-12-20T01:06:44;6.10;99.90
13572;DHT22;6857;53.484;10.216;2023-12-20T01:09:10;6.20;99.90
13572;DHT22;6857;53.484;10.216;2023-12-20T01:11:35;6.20;99.90
13572;DHT22;6857;53.484;10.216;2023-12-20T01:14:01;6.20;99.90
13572;DHT22;6857;53.484;10.216;2023-12-20T01:16:26;6.20;99.90
13572;DHT22;6857;53.484;10.216;2023-12-20T01:18:52;6.20;99.90
13572;DHT22;6857;53.484;10.216;2023-12-20T01:21:17;6.20;99.90
13572;DHT22;6857;53.484;10.216;2023-12-20T01:23:43;6.20;99.90
13572;DHT22;6857;53.484;10.216;2023-12-20T01:26:09;6.20;99.90
13572;DHT22;6857;53.484;10.216;2023-12-20T01:28:34;6.20;99.90
13572;DHT22;6857;53.484;10.216;2023-12-20T01:31:00;6.20;99.90
13572;DHT22;6857;53.484;10.216;2023-12-20T01:33:25;6.10;99.90
13572;DHT22;6857;53.484;10.216;2023-12-20T01:35:51;6.10;99.90
13572;DHT22;6857;53.484;10.216;2023-12-20T01:38:16;6.00;99.90
13572;DHT22;6857;53.484;10.216;2023-12-20T01:40:44;6.00;99.90
13572;DHT22;6857;53.484;10.216;2023-12-20T01:43:09;5.90;99.90
13572;DHT22;6857;53.484;10.216;2023-12-20T01:45:36;5.90;99.90
13572;DHT22;6857;53.484;10.216;2023-12-20T01:48:02;5.80;99.90
13572;DHT22;6857;53.484;10.216;2023-12-20T01:50:30;5.80;99.90
13572;DHT22;6857;53.484;10.216;2023-12-20T01:52:58;5.70;99.90
13572;DHT22;6857;53.484;10.216;2023-12-20T01:55:25;5.70;99.90
13572;DHT22;6857;53.484;10.216;2023-12-20T01:57:52;5.70;99.90
13572;DHT22;6857;53.484;10.216;2023-12-20T02:00:19;5.70;99.90
13572;DHT22;6857;53.484;10.216;2023-12-20T02:02:48;5.70;99.90
13572;DHT22;6857;53.484;10.216;2023-12-20T02:05:16;5.60;99.90
13572;DHT22;6857;53.484;10.216;2023-12-20T02:07:41;5.60;99.90
13572;DHT22;6857;53.484;10.216;2023-12-20T02:10:07;5.70;99.90
13572;DHT22;6857;53.484;10.216;2023-12-20T02:12:33;5.60;99.90
13572;DHT22;6857;53.484;10.216;2023-12-20T02:14:58;5.70;99.90
13572;DHT22;6857;53.484;10.216;2023-12-20T02:17:25;5.70;99.90
13572;DHT22;6857;53.484;10.216;2023-12-20T02:19:51;5.70;99.90
13572;DHT22;6857;53.484;10.216;2023-12-20T02:22:16;5.70;99.90
13572;DHT22;6857;53.484;10.216;2023-12-20T02:24:42;5.80;99.90
13572;DHT22;6857;53.484;10.216;2023-12-20T02:27:08;5.70;99.90
13572;DHT22;6857;53.484;10.216;2023-12-20T02:29:34;5.70;99.90
13572;DHT22;6857;53.484;10.216;2023-12-20T02:32:00;5.70;99.90
13572;DHT22;6857;53.484;10.216;2023-12-20T02:34:26;5.70;99.90
13572;DHT22;6857;53.484;10.216;2023-12-20T02:36:51;5.70;99.90
13572;DHT22;6857;53.484;10.216;2023-12-20T02:39:18;5.70;99.90
13572;DHT22;6857;53.484;10.216;2023-12-20T02:41:44;5.70;99.90
13572;DHT22;6857;53.484;10.216;2023-12-20T02:44:09;5.70;99.90
13572;DHT22;6857;53.484;10.216;2023-12-20T02:46:35;5.70;99.90
13572;DHT22;6857;53.484;10.216;2023-12-20T02:49:00;5.70;99.90
13572;DHT22;6857;53.484;10.216;2023-12-20T02:51:26;5.80;99.90
13572;DHT22;6857;53.484;10.216;2023-12-20T02:53:51;5.80;99.90
13572;DHT22;6857;53.484;10.216;2023-12-20T02:56:17;5.80;99.90
13572;DHT22;6857;53.484;10.216;2023-12-20T02:58:42;5.90;99.90
13572;DHT22;6857;53.484;10.216;2023-12-20T03:01:08;5.90;99.90
13572;DHT22;6857;53.484;10.216;2023-12-20T03:03:33;5.90;99.90
13572;DHT22;6857;53.484;10.216;2023-12-20T03:06:00;5.90;99.90
13572;DHT22;6857;53.484;10.216;2023-12-20T03:08:25;5.90;99.90
13572;DHT22;6857;53.484;10.216;2023-12-20T03:10:51;5.90;99.90
13572;DHT22;6857;53.484;10.216;2023-12-20T03:13:16;5.90;99.90
13572;DHT22;6857;53.484;10.216;2023-12-20T03:15:42;5.80;99.90
13572;DHT22;6857;53.484;10.216;2023-12-20T03:18:07;5.90;99.90
13572;DHT22;6857;53.484;10.216;2023-12-20T03:20:33;5.80;99.90
13572;DHT22;6857;53.484;10.216;2023-12-20T03:23:00;5.80;99.90
13572;DHT22;6857;53.484;10.216;2023-12-20T03:25:25;5.90;99.90
13572;DHT22;6857;53.484;10.216;2023-12-20T03:27:52;5.80;99.90
13572;DHT22;6857;53.484;10.216;2023-12-20T03:30:18;5.90;99.90
13572;DHT22;6857;53.484;10.216;2023-12-20T03:32:44;5.90;99.90
13572;DHT22;6857;53.484;10.216;2023-12-20T03:35:10;5.90;99.90
13572;DHT22;6857;53.484;10.216;2023-12-20T03:37:36;5.90;99.90
13572;DHT22;6857;53.484;10.216;2023-12-20T03:40:02;5.90;99.90
13572;DHT22;6857;53.484;10.216;2023-12-20T03:42:28;6.00;99.90
13572;DHT22;6857;53.484;10.216;2023-12-20T03:44:54;6.00;99.90
13572;DHT22;6857;53.484;10.216;2023-12-20T03:47:19;5.90;99.90
13572;DHT22;6857;53.484;10.216;2023-12-20T03:49:45;6.00;99.90
13572;DHT22;6857;53.484;10.216;2023-12-20T03:52:10;6.00;99.90
13572;DHT22;6857;53.484;10.216;2023-12-20T03:54:36;6.00;99.90
13572;DHT22;6857;53.484;10.216;2023-12-20T03:57:01;6.00;99.90
13572;DHT22;6857;53.484;10.216;2023-12-20T03:59:27;6.00;99.90
13572;DHT22;6857;53.484;10.216;2023-12-20T04:01:52;6.00;99.90
13572;DHT22;6857;53.484;10.216;2023-12-20T04:04:18;6.00;99.90
13572;DHT22;6857;53.484;10.216;2023-12-20T04:06:44;6.00;99.90
13572;DHT22;6857;53.484;10.216;2023-12-20T04:09:10;6.00;99.90
13572;DHT22;6857;53.484;10.216;2023-12-20T04:11:36;6.00;99.90
13572;DHT22;6857;53.484;10.216;2023-12-20T04:14:02;6.00;99.90
13572;DHT22;6857;53.484;10.216;2023-12-20T04:16:27;6.00;99.90
13572;DHT22;6857;53.484;10.216;2023-12-20T04:18:53;6.00;99.90
13572;DHT22;6857;53.484;10.216;2023-12-20T04:21:18;6.10;99.90
13572;DHT22;6857;53.484;10.216;2023-12-20T04:23:44;6.10;99.90
13572;DHT22;6857;53.484;10.216;2023-12-20T04:26:10;6.10;99.90
13572;DHT22;6857;53.484;10.216;2023-12-20T04:28:35;6.10;99.90
13572;DHT22;6857;53.484;10.216;2023-12-20T04:31:01;6.10;99.90
13572;DHT22;6857;53.484;10.216;2023-12-20T04:33:26;6.20;99.90
13572;DHT22;6857;53.484;10.216;2023-12-20T04:35:52;6.20;99.90
13572;DHT22;6857;53.484;10.216;2023-12-20T04:38:17;6.20;99.90
13572;DHT22;6857;53.484;10.216;2023-12-20T04:40:43;6.20;99.90
13572;DHT22;6857;53.484;10.216;2023-12-20T04:43:08;6.10;99.90
13572;DHT22;6857;53.484;10.216;2023-12-20T04:45:34;6.10;99.90
13572;DHT22;6857;53.484;10.216;2023-12-20T04:48:00;6.00;99.90
13572;DHT22;6857;53.484;10.216;2023-12-20T04:50:26;6.00;99.90
13572;DHT22;6857;53.484;10.216;2023-12-20T04:52:51;5.90;99.90
13572;DHT22;6857;53.484;10.216;2023-12-20T04:55:17;5.90;99.90
13572;DHT22;6857;53.484;10.216;2023-12-20T04:57:43;5.90;99.90
13572;DHT22;6857;53.484;10.216;2023-12-20T05:00:09;5.90;99.90
13572;DHT22;6857;53.484;10.216;2023-12-20T05:02:35;5.90;99.90
13572;DHT22;6857;53.484;10.216;2023-12-20T05:05:01;5.90;99.90
13572;DHT22;6857;53.484;10.216;2023-12-20T05:07:26;5.90;99.90
13572;DHT22;6857;53.484;10.216;2023-12-20T05:09:52;5.90;99.90
13572;DHT22;6857;53.484;10.216;2023-12-20T05:12:17;5.90;99.90
13572;DHT22;6857;53.484;10.216;2023-12-20T05:14:43;6.00;99.90
13572;DHT22;6857;53.484;10.216;2023-12-20T05:17:08;6.00;99.90
13572;DHT22;6857;53.484;10.216;2023-12-20T05:19:34;6.00;99.90
13572;DHT22;6857;53.484;10.216;2023-12-20T05:22:01;6.10;99.90
13572;DHT22;6857;53.484;10.216;2023-12-20T05:24:27;6.00;99.90
13572;DHT22;6857;53.484;10.216;2023-12-20T05:26:53;6.10;99.90
13572;DHT22;6857;53.484;10.216;2023-12-20T05:29:18;6.10;99.90
13572;DHT22;6857;53.484;10.216;2023-12-20T05:31:44;6.10;99.90
13572;DHT22;6857;53.484;10.216;2023-12-20T05:34:09;6.10;99.90
13572;DHT22;6857;53.484;10.216;2023-12-20T05:36:36;6.20;99.90
13572;DHT22;6857;53.484;10.216;2023-12-20T05:39:01;6.20;99.90
13572;DHT22;6857;53.484;10.216;2023-12-20T05:41:28;6.20;99.90
13572;DHT22;6857;53.484;10.216;2023-12-20T05:43:54;6.30;99.90
13572;DHT22;6857;53.484;10.216;2023-12-20T05:46:19;6.30;99.90
13572;DHT22;6857;53.484;10.216;2023-12-20T05:48:46;6.30;99.90
13572;DHT22;6857;53.484;10.216;2023-12-20T05:51:12;6.20;99.90
13572;DHT22;6857;53.484;10.216;2023-12-20T05:53:38;6.30;99.90
13572;DHT22;6857;53.484;10.216;2023-12-20T05:56:04;6.30;99.90
13572;DHT22;6857;53.484;10.216;2023-12-20T05:58:30;6.30;99.90
13572;DHT22;6857;53.484;10.216;2023-12-20T06:00:55;6.30;99.90
13572;DHT22;6857;53.484;10.216;2023-12-20T06:03:21;6.30;99.90
13572;DHT22;6857;53.484;10.216;2023-12-20T06:05:46;6.30;99.90
13572;DHT22;6857;53.484;10.216;2023-12-20T06:08:11;6.30;99.90
13572;DHT22;6857;53.484;10.216;2023-12-20T06:10:37;6.30;99.90
13572;DHT22;6857;53.484;10.216;2023-12-20T06:13:03;6.30;99.90
13572;DHT22;6857;53.484;10.216;2023-12-20T06:15:30;6.30;99.90
13572;DHT22;6857;53.484;10.216;2023-12-20T06:17:55;6.30;99.90
13572;DHT22;6857;53.484;10.216;2023-12-20T06:20:21;6.30;99.90
13572;DHT22;6857;53.484;10.216;2023-12-20T06:22:46;6.30;99.90
13572;DHT22;6857;53.484;10.216;2023-12-20T06:25:12;6.30;99.90
13572;DHT22;6857;53.484;10.216;2023-12-20T06:27:37;6.30;99.90
13572;DHT22;6857;53.484;10.216;2023-12-20T06:30:03;6.30;99.90
13572;DHT22;6857;53.484;10.216;2023-12-20T06:32:29;6.30;99.90
13572;DHT22;6857;53.484;10.216;2023-12-20T06:34:55;6.30;99.90
13572;DHT22;6857;53.484;10.216;2023-12-20T06:37:20;6.30;99.90
13572;DHT22;6857;53.484;10.216;2023-12-20T06:39:46;6.30;99.90
13572;DHT22;6857;53.484;10.216;2023-12-20T06:42:12;6.30;99.90
13572;DHT22;6857;53.484;10.216;2023-12-20T06:44:38;6.40;99.90
13572;DHT22;6857;53.484;10.216;2023-12-20T06:47:12;6.40;99.90
13572;DHT22;6857;53.484;10.216;2023-12-20T06:49:39;6.50;99.90
13572;DHT22;6857;53.484;10.216;2023-12-20T06:52:05;6.50;99.90
13572;DHT22;6857;53.484;10.216;2023-12-20T06:54:31;6.50;99.90
13572;DHT22;6857;53.484;10.216;2023-12-20T06:56:56;6.50;99.90
13572;DHT22;6857;53.484;10.216;2023-12-20T06:59:22;6.50;99.90
13572;DHT22;6857;53.484;10.216;2023-12-20T07:01:48;6.40;99.90
13572;DHT22;6857;53.484;10.216;2023-12-20T07:04:15;6.30;99.90
13572;DHT22;6857;53.484;10.216;2023-12-20T07:06:41;6.30;99.90
13572;DHT22;6857;53.484;10.216;2023-12-20T07:09:07;6.30;99.90
13572;DHT22;6857;53.484;10.216;2023-12-20T07:11:32;6.30;99.90
13572;DHT22;6857;53.484;10.216;2023-12-20T07:13:58;6.30;99.90
13572;DHT22;6857;53.484;10.216;2023-12-20T07:16:23;6.30;99.90
13572;DHT22;6857;53.484;10.216;2023-12-20T07:18:50;6.20;99.90
13572;DHT22;6857;53.484;10.216;2023-12-20T07:21:15;6.20;99.90
13572;DHT22;6857;53.484;10.216;2023-12-20T07:23:41;6.30;99.90
13572;DHT22;6857;53.484;10.216;2023-12-20T07:26:06;6.20;99.90
13572;DHT22;6857;53.484;10.216;2023-12-20T07:28:32;6.30;99.90
13572;DHT22;6857;53.484;10.216;2023-12-20T07:30:57;6.20;99.90
13572;DHT22;6857;53.484;10.216;2023-12-20T07:33:23;6.30;99.90
13572;DHT22;6857;53.484;10.216;2023-12-20T07:35:48;6.30;99.90
13572;DHT22;6857;53.484;10.216;2023-12-20T07:38:14;6.40;99.90
13572;DHT22;6857;53.484;10.216;2023-12-20T07:40:39;6.40;99.90
13572;DHT22;6857;53.484;10.216;2023-12-20T07:43:05;6.50;99.90
13572;DHT22;6857;53.484;10.216;2023-12-20T07:45:30;6.50;99.90
13572;DHT22;6857;53.484;10.216;2023-12-20T07:47:56;6.50;99.90
13572;DHT22;6857;53.484;10.216;2023-12-20T07:50:22;6.50;99.90
13572;DHT22;6857;53.484;10.216;2023-12-20T07:52:47;6.60;99.90
13572;DHT22;6857;53.484;10.216;2023-12-20T07:55:13;6.60;99.90
13572;DHT22;6857;53.484;10.216;2023-12-20T07:57:38;6.60;99.90
13572;DHT22;6857;53.484;10.216;2023-12-20T08:00:04;6.70;99.90
13572;DHT22;6857;53.484;10.216;2023-12-20T08:02:30;6.60;99.90
13572;DHT22;6857;53.484;10.216;2023-12-20T08:04:56;6.70;99.90
13572;DHT22;6857;53.484;10.216;2023-12-20T08:07:21;6.70;99.90
13572;DHT22;6857;53.484;10.216;2023-12-20T08:09:47;6.70;99.90
13572;DHT22;6857;53.484;10.216;2023-12-20T08:12:12;6.70;99.90
13572;DHT22;6857;53.484;10.216;2023-12-20T08:14:38;6.70;99.90
13572;DHT22;6857;53.484;10.216;2023-12-20T08:17:03;6.70;99.90
13572;DHT22;6857;53.484;10.216;2023-12-20T08:19:29;6.70;99.90
13572;DHT22;6857;53.484;10.216;2023-12-20T08:21:54;6.70;99.90
13572;DHT22;6857;53.484;10.216;2023-12-20T08:24:20;6.80;99.90
13572;DHT22;6857;53.484;10.216;2023-12-20T08:26:46;6.80;99.90
13572;DHT22;6857;53.484;10.216;2023-12-20T08:29:13;6.80;99.90
13572;DHT22;6857;53.484;10.216;2023-12-20T08:31:39;6.80;99.90
13572;DHT22;6857;53.484;10.216;2023-12-20T08:34:04;6.90;99.90
13572;DHT22;6857;53.484;10.216;2023-12-20T08:36:30;6.90;99.90
13572;DHT22;6857;53.484;10.216;2023-12-20T08:38:55;7.00;99.90
13572;DHT22;6857;53.484;10.216;2023-12-20T08:41:21;7.00;99.90
13572;DHT22;6857;53.484;10.216;2023-12-20T08:43:46;7.00;99.90
13572;DHT22;6857;53.484;10.216;2023-12-20T08:46:13;7.00;99.90
13572;DHT22;6857;53.484;10.216;2023-12-20T08:48:38;7.00;99.90
13572;DHT22;6857;53.484;10.216;2023-12-20T08:51:04;7.00;99.90
13572;DHT22;6857;53.484;10.216;2023-12-20T08:53:32;7.10;99.90
13572;DHT22;6857;53.484;10.216;2023-12-20T08:55:58;7.10;99.90
13572;DHT22;6857;53.484;10.216;2023-12-20T08:58:26;7.10;99.90
13572;DHT22;6857;53.484;10.216;2023-12-20T09:00:52;7.20;99.90
13572;DHT22;6857;53.484;10.216;2023-12-20T09:03:17;7.20;99.90
13572;DHT22;6857;53.484;10.216;2023-12-20T09:05:43;7.30;99.90
13572;DHT22;6857;53.484;10.216;2023-12-20T09:08:09;7.30;99.90
13572;DHT22;6857;53.484;10.216;2023-12-20T09:10:36;7.20;99.90
13572;DHT22;6857;53.484;10.216;2023-12-20T09:13:02;7.10;99.90
13572;DHT22;6857;53.484;10.216;2023-12-20T09:15:29;7.00;99.90
13572;DHT22;6857;53.484;10.216;2023-12-20T09:17:55;6.90;99.90
13572;DHT22;6857;53.484;10.216;2023-12-20T09:20:21;6.80;99.90
13572;DHT22;6857;53.484;10.216;2023-12-20T09:22:48;6.70;99.90
13572;DHT22;6857;53.484;10.216;2023-12-20T09:27:45;6.50;99.90
13572;DHT22;6857;53.484;10.216;2023-12-20T09:30:10;6.50;99.90
13572;DHT22;6857;53.484;10.216;2023-12-20T09:32:36;6.40;99.90
13572;DHT22;6857;53.484;10.216;2023-12-20T09:35:02;6.30;99.90
13572;DHT22;6857;53.484;10.216;2023-12-20T09:37:28;6.20;99.90
13572;DHT22;6857;53.484;10.216;2023-12-20T09:39:54;6.10;99.90
13572;DHT22;6857;53.484;10.216;2023-12-20T09:42:26;6.10;99.90
13572;DHT22;6857;53.484;10.216;2023-12-20T09:44:55;6.00;99.90
13572;DHT22;6857;53.484;10.216;2023-12-20T09:47:23;6.00;99.90
13572;DHT22;6857;53.484;10.216;2023-12-20T09:49:50;5.90;99.90
13572;DHT22;6857;53.484;10.216;2023-12-20T09:52:16;5.90;99.90
13572;DHT22;6857;53.484;10.216;2023-12-20T09:54:43;5.90;99.90
13572;DHT22;6857;53.484;10.216;2023-12-20T09:57:09;6.00;99.90
13572;DHT22;6857;53.484;10.216;2023-12-20T09:59:35;5.90;99.90
13572;DHT22;6857;53.484;10.216;2023-12-20T10:02:01;6.00;99.90
13572;DHT22;6857;53.484;10.216;2023-12-20T10:04:31;6.00;99.90
13572;DHT22;6857;53.484;10.216;2023-12-20T10:07:02;6.00;99.90
13572;DHT22;6857;53.484;10.216;2023-12-20T10:09:31;5.90;99.90
13572;DHT22;6857;53.484;10.216;2023-12-20T10:11:57;5.90;99.90
13572;DHT22;6857;53.484;10.216;2023-12-20T10:14:23;5.90;99.90
13572;DHT22;6857;53.484;10.216;2023-12-20T10:16:49;5.90;99.90
13572;DHT22;6857;53.484;10.216;2023-12-20T10:19:17;5.90;99.90
13572;DHT22;6857;53.484;10.216;2023-12-20T10:21:43;5.90;99.90
13572;DHT22;6857;53.484;10.216;2023-12-20T10:24:17;6.00;99.90
13572;DHT22;6857;53.484;10.216;2023-12-20T10:26:42;6.00;99.90
13572;DHT22;6857;53.484;10.216;2023-12-20T10:29:08;6.00;99.90
13572;DHT22;6857;53.484;10.216;2023-12-20T10:31:35;6.00;99.90
13572;DHT22;6857;53.484;10.216;2023-12-20T10:34:02;5.90;99.90
13572;DHT22;6857;53.484;10.216;2023-12-20T10:36:32;5.90;99.90
13572;DHT22;6857;53.484;10.216;2023-12-20T10:38:59;5.90;99.90
13572;DHT22;6857;53.484;10.216;2023-12-20T10:41:26;5.90;99.90
13572;DHT22;6857;53.484;10.216;2023-12-20T10:43:59;5.90;99.90
13572;DHT22;6857;53.484;10.216;2023-12-20T10:46:28;6.00;99.90
13572;DHT22;6857;53.484;10.216;2023-12-20T10:48:56;6.00;99.90
13572;DHT22;6857;53.484;10.216;2023-12-20T10:51:22;6.10;99.90
13572;DHT22;6857;53.484;10.216;2023-12-20T10:53:50;6.10;99.90
13572;DHT22;6857;53.484;10.216;2023-12-20T10:56:17;6.20;99.90
13572;DHT22;6857;53.484;10.216;2023-12-20T10:58:47;6.30;99.90
13572;DHT22;6857;53.484;10.216;2023-12-20T11:01:14;6.30;99.90
13572;DHT22;6857;53.484;10.216;2023-12-20T11:03:48;6.30;99.90
13572;DHT22;6857;53.484;10.216;2023-12-20T11:06:32;6.40;99.90
13572;DHT22;6857;53.484;10.216;2023-12-20T11:09:20;6.50;99.90
13572;DHT22;6857;53.484;10.216;2023-12-20T11:12:02;6.40;99.90
13572;DHT22;6857;53.484;10.216;2023-12-20T11:14:39;6.30;99.90
13572;DHT22;6857;53.484;10.216;2023-12-20T11:19:36;6.10;99.90
13572;DHT22;6857;53.484;10.216;2023-12-20T11:22:04;6.10;99.90
13572;DHT22;6857;53.484;10.216;2023-12-20T11:24:31;6.10;99.90
13572;DHT22;6857;53.484;10.216;2023-12-20T11:26:59;6.10;99.90
13572;DHT22;6857;53.484;10.216;2023-12-20T11:29:35;6.10;99.90
13572;DHT22;6857;53.484;10.216;2023-12-20T11:32:03;6.10;99.90
13572;DHT22;6857;53.484;10.216;2023-12-20T11:34:31;6.10;99.90
13572;DHT22;6857;53.484;10.216;2023-12-20T11:37:02;6.20;99.90
13572;DHT22;6857;53.484;10.216;2023-12-20T11:39:28;6.20;99.90
13572;DHT22;6857;53.484;10.216;2023-12-20T11:41:56;6.30;99.90
13572;DHT22;6857;53.484;10.216;2023-12-20T11:44:30;6.30;99.90
13572;DHT22;6857;53.484;10.216;2023-12-20T11:46:56;6.30;99.90
13572;DHT22;6857;53.484;10.216;2023-12-20T11:49:25;6.30;99.90
13572;DHT22;6857;53.484;10.216;2023-12-20T11:51:50;6.20;99.90
13572;DHT22;6857;53.484;10.216;2023-12-20T11:54:16;6.10;99.90
13572;DHT22;6857;53.484;10.216;2023-12-20T11:56:42;6.00;99.90
13572;DHT22;6857;53.484;10.216;2023-12-20T11:59:08;6.10;99.90
13572;DHT22;6857;53.484;10.216;2023-12-20T12:01:34;6.10;99.90
13572;DHT22;6857;53.484;10.216;2023-12-20T12:04:04;6.10;99.90
13572;DHT22;6857;53.484;10.216;2023-12-20T12:06:30;6.20;99.90
13572;DHT22;6857;53.484;10.216;2023-12-20T12:08:55;6.20;99.90
13572;DHT22;6857;53.484;10.216;2023-12-20T12:11:22;6.20;99.90
13572;DHT22;6857;53.484;10.216;2023-12-20T12:13:48;6.20;99.90
13572;DHT22;6857;53.484;10.216;2023-12-20T12:16:20;6.30;99.90
13572;DHT22;6857;53.484;10.216;2023-12-20T12:18:45;6.20;99.90
13572;DHT22;6857;53.484;10.216;2023-12-20T12:21:19;6.10;99.90
13572;DHT22;6857;53.484;10.216;2023-12-20T12:23:46;6.00;99.90
13572;DHT22;6857;53.484;10.216;2023-12-20T12:26:11;5.90;99.90
13572;DHT22;6857;53.484;10.216;2023-12-20T12:28:40;5.90;99.90
13572;DHT22;6857;53.484;10.216;2023-12-20T12:31:06;5.90;99.90
13572;DHT22;6857;53.484;10.216;2023-12-20T12:33:31;5.80;99.90
13572;DHT22;6857;53.484;10.216;2023-12-20T12:35:57;5.90;99.90
13572;DHT22;6857;53.484;10.216;2023-12-20T12:38:24;5.90;99.90
13572;DHT22;6857;53.484;10.216;2023-12-20T12:40:50;5.90;99.90
13572;DHT22;6857;53.484;10.216;2023-12-20T12:43:16;5.90;99.90
13572;DHT22;6857;53.484;10.216;2023-12-20T12:45:41;6.00;99.90
13572;DHT22;6857;53.484;10.216;2023-12-20T12:48:07;6.00;99.90
13572;DHT22;6857;53.484;10.216;2023-12-20T12:50:32;6.20;99.90
13572;DHT22;6857;53.484;10.216;2023-12-20T12:52:58;6.20;99.90
13572;DHT22;6857;53.484;10.216;2023-12-20T12:55:24;6.30;99.90
13572;DHT22;6857;53.484;10.216;2023-12-20T12:57:50;6.40;99.90
13572;DHT22;6857;53.484;10.216;2023-12-20T13:00:15;6.50;99.90
13572;DHT22;6857;53.484;10.216;2023-12-20T13:02:41;6.60;99.90
13572;DHT22;6857;53.484;10.216;2023-12-20T13:05:08;6.80;99.90
13572;DHT22;6857;53.484;10.216;2023-12-20T13:07:34;7.00;99.90
13572;DHT22;6857;53.484;10.216;2023-12-20T13:09:59;7.10;99.90
13572;DHT22;6857;53.484;10.216;2023-12-20T13:12:26;7.10;99.90
13572;DHT22;6857;53.484;10.216;2023-12-20T13:14:51;7.10;99.90
13572;DHT22;6857;53.484;10.216;2023-12-20T13:17:17;7.00;99.90
13572;DHT22;6857;53.484;10.216;2023-12-20T13:19:43;7.00;99.90
13572;DHT22;6857;53.484;10.216;2023-12-20T13:22:08;6.90;99.90
13572;DHT22;6857;53.484;10.216;2023-12-20T13:24:34;6.90;99.90
13572;DHT22;6857;53.484;10.216;2023-12-20T13:27:00;6.90;99.90
13572;DHT22;6857;53.484;10.216;2023-12-20T13:29:26;6.90;99.90
13572;DHT22;6857;53.484;10.216;2023-12-20T13:31:52;6.90;99.90
13572;DHT22;6857;53.484;10.216;2023-12-20T13:34:18;6.80;99.90
13572;DHT22;6857;53.484;10.216;2023-12-20T13:36:44;6.80;99.90
13572;DHT22;6857;53.484;10.216;2023-12-20T13:39:16;6.80;99.90
13572;DHT22;6857;53.484;10.216;2023-12-20T13:41:42;6.80;99.90
13572;DHT22;6857;53.484;10.216;2023-12-20T13:44:07;6.70;99.90
13572;DHT22;6857;53.484;10.216;2023-12-20T13:46:33;6.70;99.90
13572;DHT22;6857;53.484;10.216;2023-12-20T13:48:59;6.70;99.90
13572;DHT22;6857;53.484;10.216;2023-12-20T13:51:25;6.70;99.90
13572;DHT22;6857;53.484;10.216;2023-12-20T13:53:50;6.60;99.90
13572;DHT22;6857;53.484;10.216;2023-12-20T13:56:16;6.60;99.90
13572;DHT22;6857;53.484;10.216;2023-12-20T13:58:42;6.60;99.90
13572;DHT22;6857;53.484;10.216;2023-12-20T14:01:09;6.60;99.90
13572;DHT22;6857;53.484;10.216;2023-12-20T14:03:35;6.60;99.90
13572;DHT22;6857;53.484;10.216;2023-12-20T14:06:01;6.60;99.90
13572;DHT22;6857;53.484;10.216;2023-12-20T14:08:29;6.50;99.90
13572;DHT22;6857;53.484;10.216;2023-12-20T14:10:55;6.50;99.90
13572;DHT22;6857;53.484;10.216;2023-12-20T14:13:20;6.60;99.90
13572;DHT22;6857;53.484;10.216;2023-12-20T14:15:46;6.60;99.90
13572;DHT22;6857;53.484;10.216;2023-12-20T14:18:12;6.70;99.90
13572;DHT22;6857;53.484;10.216;2023-12-20T14:20:40;6.70;99.90
13572;DHT22;6857;53.484;10.216;2023-12-20T14:23:08;6.70;99.90
13572;DHT22;6857;53.484;10.216;2023-12-20T14:25:35;6.70;99.90
13572;DHT22;6857;53.484;10.216;2023-12-20T14:28:04;6.70;99.90
13572;DHT22;6857;53.484;10.216;2023-12-20T14:30:30;6.70;99.90
13572;DHT22;6857;53.484;10.216;2023-12-20T14:32:56;6.70;99.90
13572;DHT22;6857;53.484;10.216;2023-12-20T14:35:22;6.70;99.90
13572;DHT22;6857;53.484;10.216;2023-12-20T14:37:47;6.70;99.90
13572;DHT22;6857;53.484;10.216;2023-12-20T14:40:15;6.80;99.90
13572;DHT22;6857;53.484;10.216;2023-12-20T14:42:43;6.80;99.90
13572;DHT22;6857;53.484;10.216;2023-12-20T14:45:09;6.80;99.90
13572;DHT22;6857;53.484;10.216;2023-12-20T14:47:35;6.80;99.90
13572;DHT22;6857;53.484;10.216;2023-12-20T14:50:02;6.80;99.90
13572;DHT22;6857;53.484;10.216;2023-12-20T14:52:29;6.70;99.90
13572;DHT22;6857;53.484;10.216;2023-12-20T14:54:54;6.80;99.90
13572;DHT22;6857;53.484;10.216;2023-12-20T14:57:20;6.70;99.90
13572;DHT22;6857;53.484;10.216;2023-12-20T14:59:45;6.70;99.90
13572;DHT22;6857;53.484;10.216;2023-12-20T15:02:11;6.60;99.90
13572;DHT22;6857;53.484;10.216;2023-12-20T15:04:36;6.70;99.90
13572;DHT22;6857;53.484;10.216;2023-12-20T15:07:02;6.60;99.90
13572;DHT22;6857;53.484;10.216;2023-12-20T15:09:30;6.60;99.90
13572;DHT22;6857;53.484;10.216;2023-12-20T15:11:55;6.60;99.90
13572;DHT22;6857;53.484;10.216;2023-12-20T15:14:21;6.60;99.90
13572;DHT22;6857;53.484;10.216;2023-12-20T15:16:46;6.60;99.90
13572;DHT22;6857;53.484;10.216;2023-12-20T15:19:12;6.50;99.90
13572;DHT22;6857;53.484;10.216;2023-12-20T15:21:38;6.50;99.90
13572;DHT22;6857;53.484;10.216;2023-12-20T15:24:11;6.50;99.90
13572;DHT22;6857;53.484;10.216;2023-12-20T15:26:42;6.50;99.90
13572;DHT22;6857;53.484;10.216;2023-12-20T15:29:12;6.40;99.90
13572;DHT22;6857;53.484;10.216;2023-12-20T15:31:43;6.40;99.90
13572;DHT22;6857;53.484;10.216;2023-12-20T15:34:09;6.40;99.90
13572;DHT22;6857;53.484;10.216;2023-12-20T15:36:35;6.40;99.90
13572;DHT22;6857;53.484;10.216;2023-12-20T15:39:01;6.30;99.90
13572;DHT22;6857;53.484;10.216;2023-12-20T15:41:27;6.30;99.90
13572;DHT22;6857;53.484;10.216;2023-12-20T15:43:53;6.20;99.90